Time;durP1;ratioP1;P1;durP2;ratioP2;P2;SDS_P1;SDS_P2;PMS_P1;PMS_P2;Temp;Humidity;BMP_temperature;BMP_pressure;BME280_temperature;BME280_humidity;BME280_pressure;Samples;Min_cycle;Max_cycle;Signal;HPM_P1;HPM_P2
2023/04/18 00:00:50;;;;;;;4.43;3.03;;;23.50;49.30;;;;;;6151282;28;80991;-68
2023/04/18 00:03:51;;;;;;;4.05;3.22;;;23.60;49.40;;;;;;6151421;28;80601;-68
2023/04/18 00:06:51;;;;;;;4.00;3.20;;;23.60;49.30;;;;;;6149697;28;82073;-60
2023/04/18 00:09:52;;;;;;;6.20;2.95;;;23.60;49.40;;;;;;6151820;28;80731;-60
2023/04/18 00:12:53;;;;;;;4.57;3.08;;;23.60;49.30;;;;;;6153120;28;80481;-60
2023/04/18 00:15:54;;;;;;;3.17;2.88;;;23.60;49.30;;;;;;6153762;28;80298;-59
2023/04/18 00:18:55;;;;;;;5.72;3.63;;;23.60;49.30;;;;;;6146404;28;80974;-60
2023/04/18 00:21:56;;;;;;;5.53;3.42;;;23.50;49.70;;;;;;6154120;28;80711;-60
2023/04/18 00:24:57;;;;;;;3.38;2.97;;;23.50;49.30;;;;;;6153628;28;80993;-63
2023/04/18 00:27:57;;;;;;;4.22;3.25;;;23.60;49.30;;;;;;6151632;28;82052;-62
2023/04/18 00:30:58;;;;;;;5.18;3.50;;;23.50;49.30;;;;;;6152140;28;82187;-63
2023/04/18 00:33:59;;;;;;;4.63;3.20;;;23.50;49.30;;;;;;6153207;28;80970;-62
2023/04/18 00:36:59;;;;;;;4.38;3.22;;;23.50;49.30;;;;;;6152030;28;82097;-61
2023/04/18 00:40:00;;;;;;;4.22;3.00;;;23.50;49.20;;;;;;6144603;28;83244;-62
2023/04/18 00:43:01;;;;;;;3.53;3.00;;;23.50;49.30;;;;;;6153661;28;81417;-62
2023/04/18 00:46:01;;;;;;;4.20;3.38;;;23.50;49.40;;;;;;6153286;28;80590;-62
2023/04/18 00:49:02;;;;;;;4.07;3.00;;;23.50;49.30;;;;;;6150588;28;83678;-61
2023/04/18 00:52:02;;;;;;;4.57;3.17;;;23.50;49.30;;;;;;6153518;28;80391;-63
2023/04/18 00:55:03;;;;;;;4.05;2.92;;;23.50;49.30;;;;;;6144027;28;81406;-62
2023/04/18 00:58:05;;;;;;;6.05;3.15;;;23.50;49.30;;;;;;6127561;28;80919;-62
2023/04/18 01:01:05;;;;;;;4.00;2.95;;;23.50;49.20;;;;;;6135455;28;81768;-66
2023/04/18 01:04:06;;;;;;;4.47;3.33;;;23.50;49.30;;;;;;6128999;28;80948;-66
2023/04/18 01:07:07;;;;;;;3.58;3.00;;;23.50;49.20;;;;;;6127842;28;80900;-68
2023/04/18 01:10:07;;;;;;;7.03;3.00;;;23.50;49.10;;;;;;6144184;28;82920;-68
2023/04/18 01:13:08;;;;;;;3.78;3.00;;;23.50;49.20;;;;;;6150568;28;83004;-69
2023/04/18 01:16:08;;;;;;;4.30;3.13;;;23.50;49.20;;;;;;6151684;28;83375;-69
2023/04/18 01:19:10;;;;;;;3.83;3.08;;;23.50;49.20;;;;;;6150505;28;84938;-71
2023/04/18 01:22:10;;;;;;;5.57;3.40;;;23.50;49.20;;;;;;6150514;28;83407;-69
2023/04/18 01:25:11;;;;;;;3.65;3.35;;;23.50;49.30;;;;;;6143023;28;81868;-70
2023/04/18 01:28:11;;;;;;;5.85;3.35;;;23.50;49.30;;;;;;6128069;28;80569;-72
2023/04/18 01:31:12;;;;;;;4.28;2.90;;;23.50;49.50;;;;;;6139836;28;82046;-67
2023/04/18 01:34:13;;;;;;;3.80;3.28;;;23.50;49.40;;;;;;6150622;28;82015;-66
2023/04/18 01:37:16;;;;;;;3.05;2.75;;;23.50;49.40;;;;;;6152738;28;82989;-58
2023/04/18 01:40:16;;;;;;;4.18;3.35;;;23.50;49.50;;;;;;6144805;28;80770;-60
2023/04/18 01:43:17;;;;;;;6.35;3.20;;;23.50;49.30;;;;;;6152315;28;81255;-60
2023/04/18 01:46:18;;;;;;;4.18;2.53;;;23.50;49.50;;;;;;6152120;28;81300;-61
2023/04/18 01:49:18;;;;;;;4.03;3.17;;;23.50;49.40;;;;;;6151153;28;80931;-60
2023/04/18 01:52:19;;;;;;;4.53;2.75;;;23.50;49.40;;;;;;6148359;28;83206;-60
2023/04/18 01:55:19;;;;;;;3.63;3.17;;;23.50;49.40;;;;;;6152114;28;80585;-60
2023/04/18 01:58:22;;;;;;;4.65;3.13;;;23.50;49.40;;;;;;6151377;28;83553;-61
2023/04/18 02:01:23;;;;;;;3.15;2.83;;;23.50;49.50;;;;;;6157122;28;82409;-61
2023/04/18 02:04:23;;;;;;;4.05;2.88;;;23.50;49.40;;;;;;6151341;28;80365;-62
2023/04/18 02:07:24;;;;;;;3.63;3.20;;;23.50;49.40;;;;;;6135445;28;83356;-62
2023/04/18 02:10:25;;;;;;;5.03;3.10;;;23.50;49.40;;;;;;6143741;28;80872;-62
2023/04/18 02:13:25;;;;;;;4.53;2.83;;;23.50;49.40;;;;;;6151392;28;80678;-62
2023/04/18 02:16:26;;;;;;;3.22;2.47;;;23.50;49.40;;;;;;6151387;28;82730;-58
2023/04/18 02:19:29;;;;;;;3.28;2.97;;;23.50;49.40;;;;;;6149862;28;82051;-58
2023/04/18 02:22:30;;;;;;;3.72;3.08;;;23.50;49.50;;;;;;6153896;28;81482;-58
2023/04/18 02:25:30;;;;;;;3.40;2.92;;;23.50;49.40;;;;;;6154914;28;81536;-58
2023/04/18 02:28:31;;;;;;;3.20;2.72;;;23.50;49.40;;;;;;6154227;28;80431;-58
2023/04/18 02:31:31;;;;;;;3.83;3.42;;;23.50;49.50;;;;;;6156083;28;80401;-58
2023/04/18 02:34:32;;;;;;;3.78;3.28;;;23.40;49.50;;;;;;6155857;28;80596;-62
2023/04/18 02:37:33;;;;;;;3.35;2.95;;;23.50;49.60;;;;;;6155084;28;80231;-62
2023/04/18 02:40:33;;;;;;;3.80;3.00;;;23.40;49.50;;;;;;6153244;28;83132;-61
2023/04/18 02:43:34;;;;;;;4.65;3.20;;;23.40;49.50;;;;;;6155596;28;80707;-62
2023/04/18 02:46:36;;;;;;;3.08;2.75;;;23.40;49.50;;;;;;6146361;28;82110;-62
2023/04/18 02:49:38;;;;;;;3.42;3.03;;;23.50;49.50;;;;;;6128973;28;82984;-62
2023/04/18 02:52:39;;;;;;;4.50;3.45;;;23.50;49.50;;;;;;6134219;28;81705;-71
2023/04/18 02:55:41;;;;;;;5.05;3.70;;;23.50;49.40;;;;;;6128765;28;81191;-67
2023/04/18 02:58:42;;;;;;;6.53;3.92;;;23.50;49.30;;;;;;6150583;28;80163;-67
2023/04/18 03:02:08;;;;;;;;;;;23.50;49.40;;;;;;6154670;28;82278;-68
2023/04/18 03:05:12;;;;;;;;;;;23.50;49.40;;;;;;6176155;28;83117;-67
2023/04/18 03:08:13;;;;;;;;;;;23.50;49.40;;;;;;6161277;28;81356;-65
2023/04/18 03:11:14;;;;;;;;;;;23.50;49.30;;;;;;6160595;28;78197;-68
2023/04/18 03:14:14;;;;;;;;;;;23.60;49.30;;;;;;6160934;28;76227;-69
2023/04/18 03:17:24;;;;;;;;;;;23.60;49.30;;;;;;6158933;28;78716;-69
2023/04/18 03:20:26;;;;;;;;;;;23.60;49.30;;;;;;6175072;28;77657;-69
2023/04/18 03:23:26;;;;;;;;;;;23.60;49.40;;;;;;6158384;28;78196;-67
2023/04/18 03:26:27;;;;;;;;;;;23.60;49.20;;;;;;6155979;28;77973;-70
2023/04/18 03:29:29;;;;;;;;;;;23.60;49.30;;;;;;6148954;28;75936;-64
2023/04/18 03:32:32;;;;;;;;;;;23.50;49.40;;;;;;6154522;28;76879;-69
2023/04/18 03:35:33;;;;;;;;;;;23.60;49.50;;;;;;6154000;28;78409;-65
2023/04/18 03:38:33;;;;;;;;;;;23.60;49.30;;;;;;6157137;28;78095;-67
2023/04/18 03:41:34;;;;;;;;;;;23.70;49.30;;;;;;6158533;28;78559;-67
2023/04/18 03:44:35;;;;;;;;;;;23.70;49.20;;;;;;6174615;28;76342;-67
2023/04/18 03:47:37;;;;;;;;;;;23.70;49.20;;;;;;6156071;28;77097;-59
2023/04/18 03:50:38;;;;;;;;;;;23.70;49.20;;;;;;6174150;28;76879;-59
2023/04/18 03:53:42;;;;;;;;;;;23.70;49.20;;;;;;6171549;28;80051;-58
2023/04/18 03:56:43;;;;;;;;;;;23.80;49.70;;;;;;6171140;28;76713;-59
2023/04/18 03:59:44;;;;;;;;;;;23.80;49.40;;;;;;6153965;28;78032;-59
2023/04/18 04:02:45;;;;;;;;;;;23.80;49.50;;;;;;6147342;28;78394;-62
2023/04/18 04:05:53;;;;;;;;;;;23.80;49.40;;;;;;6156850;28;78969;-69
2023/04/18 04:08:54;;;;;;;;;;;23.80;49.20;;;;;;6161158;28;75893;-74
2023/04/18 04:11:58;;;;;;;;;;;23.80;49.30;;;;;;6170129;28;76932;-68
2023/04/18 04:15:01;;;;;;;;;;;23.80;49.30;;;;;;6132391;28;1177183;-74
2023/04/18 04:18:01;;;;;;;;;;;23.80;49.40;;;;;;6156813;28;78525;-68
2023/04/18 04:21:03;;;;;;;;;;;23.80;49.40;;;;;;6162486;28;77759;-72
2023/04/18 04:24:21;;;;;;;;;;;23.80;49.50;;;;;;6133444;28;76505;-67
2023/04/18 04:27:23;;;;;;;;;;;23.90;49.70;;;;;;6131616;28;78414;-72
2023/04/18 04:30:25;;;;;;;;;;;23.90;49.80;;;;;;6115014;28;75919;-69
2023/04/18 04:33:27;;;;;;;;;;;23.90;49.80;;;;;;6130099;28;79266;-63
2023/04/18 04:36:32;;;;;;;;;;;23.90;49.90;;;;;;6166771;28;78069;-77
2023/04/18 04:39:34;;;;;;;;;;;23.90;49.80;;;;;;6143447;28;77756;-63
2023/04/18 04:42:55;;;;;;;;;;;23.90;49.60;;;;;;6131986;28;78757;-61
2023/04/18 04:46:12;;;;;;;;;;;23.90;49.50;;;;;;6149539;28;77818;-64
2023/04/18 04:49:13;;;;;;;;;;;24.00;49.40;;;;;;6144084;28;78149;-62
2023/04/18 04:52:13;;;;;;;;;;;24.00;49.50;;;;;;6138142;28;78250;-62
2023/04/18 04:55:14;;;;;;;;;;;23.90;49.90;;;;;;6157688;28;78271;-62
2023/04/18 04:58:16;;;;;;;;;;;24.00;49.80;;;;;;6151079;28;78151;-60
2023/04/18 05:01:33;;;;;;;;;;;23.90;49.60;;;;;;6124785;28;78304;-62
2023/04/18 05:04:35;;;;;;;;;;;23.90;49.50;;;;;;6131631;28;75383;-62
2023/04/18 05:07:35;;;;;;;;;;;23.90;49.40;;;;;;6132367;28;75932;-60
2023/04/18 05:10:36;;;;;;;;;;;23.90;49.40;;;;;;6132690;28;75233;-61
2023/04/18 05:13:36;;;;;;;;;;;23.90;49.70;;;;;;6131546;28;75927;-61
2023/04/18 05:16:37;;;;;;;;;;;23.90;49.80;;;;;;6131862;28;75346;-61
2023/04/18 05:19:38;;;;;;;;;;;23.90;50.00;;;;;;6131924;28;75061;-70
2023/04/18 05:22:38;;;;;;;;;;;23.90;50.20;;;;;;6132432;28;75244;-71
2023/04/18 05:25:39;;;;;;;;;;;23.90;51.00;;;;;;6132712;28;76028;-67
2023/04/18 05:28:40;;;;;;;;;;;23.80;51.40;;;;;;6132159;28;76098;-65
2023/04/18 05:31:40;;;;;;;;;;;23.90;51.60;;;;;;6134679;28;75327;-67
2023/04/18 05:34:41;;;;;;;;;;;23.90;52.00;;;;;;6134389;28;75675;-67
2023/04/18 05:37:42;;;;;;;;;;;23.90;52.20;;;;;;6134368;28;75210;-58
2023/04/18 05:40:42;;;;;;;;;;;23.90;52.20;;;;;;6134403;28;75170;-59
2023/04/18 05:43:43;;;;;;;;;;;23.90;52.00;;;;;;6134959;28;76331;-57
2023/04/18 05:46:43;;;;;;;;;;;24.00;51.70;;;;;;6135554;28;75327;-60
2023/04/18 05:49:44;;;;;;;;;;;23.90;51.50;;;;;;6134745;28;75541;-59
2023/04/18 05:52:44;;;;;;;;;;;24.00;51.40;;;;;;6127182;28;77222;-57
2023/04/18 05:55:47;;;;;;;;;;;24.00;51.20;;;;;;6011029;28;79389;-69
2023/04/18 05:58:50;;;;;;;;;;;24.00;51.10;;;;;;6148019;28;76516;-71
2023/04/18 06:01:50;;;;;;;;;;;23.90;51.00;;;;;;6151468;28;77542;-68
2023/04/18 06:04:51;;;;;;;;;;;23.90;50.90;;;;;;6154456;28;75522;-68
2023/04/18 06:07:51;;;;;;;;;;;23.90;50.60;;;;;;6149969;28;76205;-66
2023/04/18 06:10:52;;;;;;;;;;;23.90;50.70;;;;;;6153989;28;75472;-71
2023/04/18 06:13:54;;;;;;;;;;;23.90;50.60;;;;;;6151417;28;76150;-60
2023/04/18 06:16:55;;;;;;;;;;;23.90;50.80;;;;;;6154477;28;75518;-60
2023/04/18 06:19:55;;;;;;;;;;;23.90;50.70;;;;;;6155255;28;75494;-62
2023/04/18 06:22:56;;;;;;;;;;;23.90;50.60;;;;;;6151319;28;80546;-62
2023/04/18 06:25:57;;;;;;;;;;;23.80;50.60;;;;;;6155075;28;78225;-64
2023/04/18 06:28:57;;;;;;;;;;;23.80;50.60;;;;;;6152364;28;76513;-64
2023/04/18 06:31:58;;;;;;;;;;;23.80;50.40;;;;;;6154095;28;75535;-60
2023/04/18 06:34:58;;;;;;;;;;;23.80;50.50;;;;;;6156087;28;75450;-65
2023/04/18 06:37:59;;;;;;;;;;;23.80;50.30;;;;;;6153911;28;75524;-60
2023/04/18 06:40:59;;;;;;;;;;;23.90;50.20;;;;;;6154709;28;75862;-61
2023/04/18 06:44:00;;;;;;;;;;;23.80;50.10;;;;;;6154743;28;76454;-60
2023/04/18 06:47:00;;;;;;;;;;;23.80;50.10;;;;;;6134711;28;75328;-60
2023/04/18 06:50:01;;;;;;;;;;;23.80;50.10;;;;;;6155223;28;75772;-60
2023/04/18 06:53:01;;;;;;;;;;;23.80;50.40;;;;;;6135334;28;75584;-60
2023/04/18 06:56:02;;;;;;;;;;;23.80;50.30;;;;;;6135501;28;76011;-59
2023/04/18 06:59:02;;;;;;;;;;;23.80;50.20;;;;;;6155029;28;75420;-60
2023/04/18 07:02:03;;;;;;;;;;;23.80;50.10;;;;;;6157494;28;75030;-60
2023/04/18 07:05:03;;;;;;;;;;;23.80;50.10;;;;;;6108976;28;76211;-60
2023/04/18 07:08:04;;;;;;;;;;;23.80;50.00;;;;;;6118597;28;80383;-63
2023/04/18 07:11:04;;;;;;;;;;;23.80;49.90;;;;;;6153446;28;75168;-64
2023/04/18 07:14:05;;;;;;;;;;;23.80;49.90;;;;;;6170879;28;75866;-65
2023/04/18 07:17:05;;;;;;;;;;;23.80;49.80;;;;;;6158371;28;76237;-64
2023/04/18 07:20:06;;;;;;;;;;;23.80;49.80;;;;;;6157684;28;76070;-63
2023/04/18 07:23:06;;;;;;;;;;;23.90;50.00;;;;;;6158460;28;75060;-72
2023/04/18 07:26:08;;;;;;;;;;;23.90;50.00;;;;;;6151392;28;75403;-63
2023/04/18 07:29:09;;;;;;;;;;;23.90;50.00;;;;;;6154299;28;78203;-61
2023/04/18 07:32:09;;;;;;;;;;;23.90;50.00;;;;;;6155798;28;75224;-63
2023/04/18 07:35:10;;;;;;;;;;;23.90;49.90;;;;;;6152636;28;80104;-61
2023/04/18 07:38:10;;;;;;;;;;;23.90;50.00;;;;;;6122421;28;76212;-61
2023/04/18 07:41:11;;;;;;;;;;;23.90;50.20;;;;;;6157578;28;78806;-64
2023/04/18 07:44:11;;;;;;;;;;;23.90;50.20;;;;;;6157989;28;76189;-63
2023/04/18 07:47:12;;;;;;;;;;;24.00;50.40;;;;;;6157233;28;75248;-60
2023/04/18 07:50:12;;;;;;;;;;;24.00;50.80;;;;;;6133619;28;77260;-59
2023/04/18 07:53:13;;;;;;;;;;;24.00;50.70;;;;;;6120940;28;80887;-62
2023/04/18 07:56:13;;;;;;;;;;;24.00;50.40;;;;;;6161666;28;76720;-59
2023/04/18 07:59:14;;;;;;;;;;;24.00;50.30;;;;;;6157961;28;81038;-57
2023/04/18 08:02:15;;;;;;;;;;;24.00;50.20;;;;;;6156744;28;75225;-58
2023/04/18 08:05:15;;;;;;;;;;;24.00;50.10;;;;;;6153300;28;76275;-61
2023/04/18 08:08:16;;;;;;;;;;;24.10;50.00;;;;;;6155250;28;78950;-60
2023/04/18 08:11:16;;;;;;;;;;;24.10;50.00;;;;;;6153692;28;77459;-60
2023/04/18 08:14:17;;;;;;;;;;;24.10;49.90;;;;;;6156302;28;77571;-62
2023/04/18 08:17:17;;;;;;;;;;;24.10;49.90;;;;;;6150002;28;81667;-61
2023/04/18 08:20:18;;;;;;;;;;;24.10;49.80;;;;;;6147182;28;76924;-59
2023/04/18 08:23:18;;;;;;;;;;;24.20;49.90;;;;;;6157539;28;80284;-67
2023/04/18 08:26:19;;;;;;;;;;;24.20;49.80;;;;;;6159766;28;75275;-70
2023/04/18 08:29:20;;;;;;;;;;;24.20;49.80;;;;;;6159570;28;75806;-70
2023/04/18 08:32:20;;;;;;;;;;;24.20;49.70;;;;;;6155569;28;78077;-67
2023/04/18 08:35:21;;;;;;;;;;;24.20;49.80;;;;;;6159178;28;75313;-73
2023/04/18 08:38:21;;;;;;;;;;;24.20;49.80;;;;;;6160032;28;76341;-73
2023/04/18 08:41:22;;;;;;;;;;;24.20;49.80;;;;;;6160248;28;77777;-59
2023/04/18 08:44:23;;;;;;;;;;;24.30;50.10;;;;;;6158801;28;76020;-59
2023/04/18 08:47:24;;;;;;;;;;;24.30;49.80;;;;;;6157183;28;76401;-57
2023/04/18 08:50:25;;;;;;;;;;;24.30;49.50;;;;;;6162109;28;75368;-58
2023/04/18 08:53:26;;;;;;;;;;;24.20;48.70;;;;;;6177568;28;75330;-55
2023/04/18 08:56:27;;;;;;;;;;;24.20;48.20;;;;;;6160901;28;76114;-59
2023/04/18 08:59:29;;;;;;;;;;;24.10;45.90;;;;;;6161312;28;75770;-59
2023/04/18 09:02:29;;;;;;;;;;;24.10;46.40;;;;;;6160196;28;75244;-60
2023/04/18 09:05:30;;;;;;;;;;;24.10;46.30;;;;;;6159760;28;75293;-58
2023/04/18 09:08:30;;;;;;;;;;;24.00;46.00;;;;;;6158966;28;75713;-58
2023/04/18 09:11:33;;;;;;;;;;;24.00;46.00;;;;;;6160036;28;77156;-58
2023/04/18 09:14:35;;;;;;;;;;;24.00;46.20;;;;;;6159555;28;75410;-59
2023/04/18 09:17:36;;;;;;;;;;;24.00;46.20;;;;;;6160494;28;75494;-58
2023/04/18 09:20:38;;;;;;;;;;;24.00;46.00;;;;;;6152447;28;77785;-59
2023/04/18 09:23:39;;;;;;;;;;;24.00;46.30;;;;;;6158599;28;76047;-57
2023/04/18 09:26:40;;;;;;;;;;;24.00;46.20;;;;;;6160158;28;75106;-55
2023/04/18 09:29:41;;;;;;;;;;;24.00;46.00;;;;;;6171031;28;76368;-58
2023/04/18 09:32:43;;;;;;;;;;;24.00;46.00;;;;;;6157135;28;77609;-58
2023/04/18 09:35:44;;;;;;;;;;;24.00;45.90;;;;;;6158445;28;75746;-63
2023/04/18 09:38:44;;;;;;;;;;;23.90;46.10;;;;;;6158336;28;75993;-62
2023/04/18 09:41:45;;;;;;;;;;;24.00;46.20;;;;;;6159822;28;75815;-64
2023/04/18 09:44:45;;;;;;;;;;;24.00;46.30;;;;;;6159045;28;75418;-65
2023/04/18 09:47:46;;;;;;;;;;;24.00;46.40;;;;;;6159285;28;75145;-61
2023/04/18 09:50:47;;;;;;;;;;;24.10;46.50;;;;;;6158445;28;75721;-60
2023/04/18 09:53:49;;;;;;;;;;;24.20;46.50;;;;;;6167074;28;74740;-59
2023/04/18 09:56:49;;;;;;;;;;;24.20;46.40;;;;;;6157892;28;75031;-62
2023/04/18 09:59:50;;;;;;;;;;;24.20;46.30;;;;;;6158501;28;75257;-58
2023/04/18 10:02:50;;;;;;;;;;;24.30;46.20;;;;;;6158054;28;75275;-63
2023/04/18 10:05:51;;;;;;;;;;;24.30;46.30;;;;;;6159425;28;75642;-62
2023/04/18 10:08:51;;;;;;;;;;;24.30;46.60;;;;;;6159431;28;77240;-63
2023/04/18 10:11:52;;;;;;;;;;;24.30;45.80;;;;;;6158022;28;75134;-65
2023/04/18 10:14:52;;;;;;;;;;;24.40;46.10;;;;;;6157976;28;76156;-63
2023/04/18 10:17:53;;;;;;;;;;;24.40;46.20;;;;;;6157551;28;75332;-64
2023/04/18 10:20:53;;;;;;;;;;;24.40;45.90;;;;;;6151216;28;75872;-65
2023/04/18 10:23:54;;;;;;;;;;;24.50;45.90;;;;;;6158595;28;75389;-61
2023/04/18 10:26:54;;;;;;;;;;;24.50;45.70;;;;;;6158469;28;75457;-60
2023/04/18 10:29:55;;;;;;;;;;;24.60;45.80;;;;;;6156753;28;76063;-63
2023/04/18 10:32:55;;;;;;;;;;;24.60;45.90;;;;;;6158794;28;77607;-64
2023/04/18 10:35:56;;;;;;;;;;;24.60;45.90;;;;;;6158912;28;75507;-61
2023/04/18 10:38:57;;;;;;;;;;;24.60;45.70;;;;;;6158586;28;75294;-62
2023/04/18 10:41:57;;;;;;;;;;;24.60;45.90;;;;;;6159404;28;75932;-63
2023/04/18 10:44:58;;;;;;;;;;;24.60;45.70;;;;;;6158191;28;78049;-62
2023/04/18 10:47:58;;;;;;;;;;;24.60;45.70;;;;;;6157260;28;78252;-63
2023/04/18 10:50:59;;;;;;;;;;;24.60;45.70;;;;;;6160915;28;75978;-64
2023/04/18 10:53:59;;;;;;;;;;;24.70;45.80;;;;;;6159070;28;76732;-62
2023/04/18 10:57:03;;;;;;;;;;;24.70;45.80;;;;;;6151074;28;75212;-64
2023/04/18 11:00:04;;;;;;;;;;;24.70;45.90;;;;;;6144491;28;75792;-63
2023/04/18 11:03:04;;;;;;;;;;;24.70;45.80;;;;;;6160615;28;75345;-64
2023/04/18 11:06:05;;;;;;;;;;;24.80;45.90;;;;;;6159576;28;75877;-65
2023/04/18 11:09:06;;;;;;;;;;;24.80;46.10;;;;;;6156894;28;75281;-56
2023/04/18 11:12:07;;;;;;;;;;;24.80;45.90;;;;;;6154508;28;75163;-55
2023/04/18 11:15:07;;;;;;;;;;;24.80;46.90;;;;;;6155896;28;75734;-57
2023/04/18 11:18:08;;;;;;;;;;;24.80;46.10;;;;;;6161307;28;76966;-57
2023/04/18 11:21:08;;;;;;;;;;;24.80;45.80;;;;;;6161573;28;75673;-56
2023/04/18 11:24:09;;;;;;;;;;;24.80;45.50;;;;;;6161541;28;75894;-52
2023/04/18 11:27:09;;;;;;;;;;;24.80;45.40;;;;;;6161491;28;75944;-64
2023/04/18 11:30:10;;;;;;;;;;;24.70;44.10;;;;;;6159533;28;76463;-64
2023/04/18 11:33:11;;;;;;;;;;;24.60;44.00;;;;;;6162692;28;75753;-64
2023/04/18 11:36:11;;;;;;;;;;;24.70;44.20;;;;;;6161215;28;75174;-64
2023/04/18 11:39:13;;;;;;;;;;;24.50;43.50;;;;;;6162188;28;75970;-63
2023/04/18 11:42:13;;;;;;;;;;;24.50;41.00;;;;;;6161297;28;75939;-62
2023/04/18 11:45:14;;;;;;;;;;;24.40;40.90;;;;;;6175918;28;78778;-60
2023/04/18 11:48:15;;;;;;;;;;;24.30;40.00;;;;;;6161863;28;75585;-62
2023/04/18 11:51:16;;;;;;;;;;;24.20;40.00;;;;;;6161047;28;75149;-62
2023/04/18 11:54:16;;;;;;;;;;;24.00;40.50;;;;;;6161190;28;75940;-63
2023/04/18 11:57:17;;;;;;;;;;;24.10;40.20;;;;;;6160908;28;75996;-61
2023/04/18 12:00:20;;;;;;;;;;;24.20;40.60;;;;;;6160350;28;75584;-62
2023/04/18 12:03:21;;;;;;;;;;;24.30;41.20;;;;;;6161149;28;75669;-61
2023/04/18 12:06:22;;;;;;;;;;;24.40;42.10;;;;;;6151318;28;76034;-60
2023/04/18 12:09:23;;;;;;;;;;;24.50;42.70;;;;;;6136386;28;78204;-59
2023/04/18 12:12:24;;;;;;;;;;;24.50;42.80;;;;;;6146368;28;77972;-59
2023/04/18 12:15:26;;;;;;;;;;;24.60;43.10;;;;;;6160915;28;75242;-59
2023/04/18 12:18:28;;;;;;;;;;;24.60;43.40;;;;;;6159830;28;76844;-61
2023/04/18 12:21:31;;;;;;;;;;;24.70;44.00;;;;;;6161152;28;75786;-56
2023/04/18 12:24:32;;;;;;;;;;;24.70;44.00;;;;;;6160220;28;75986;-56
2023/04/18 12:27:33;;;;;;;;;;;24.70;43.80;;;;;;6161045;28;76162;-55
2023/04/18 12:30:33;;;;;;;;;;;24.70;43.80;;;;;;6158038;28;75132;-57
2023/04/18 12:33:37;;;;;;;;;;;24.70;43.90;;;;;;6160221;28;76011;-58
2023/04/18 12:36:37;;;;;;;;;;;24.70;43.90;;;;;;6128249;28;81216;-54
2023/04/18 12:39:38;;;;;;;;;;;24.70;43.90;;;;;;6145270;28;77898;-60
2023/04/18 12:42:39;;;;;;;;;;;24.70;43.80;;;;;;6141437;28;75977;-61
2023/04/18 12:45:39;;;;;;;;;;;24.70;43.80;;;;;;6144742;28;75368;-60
2023/04/18 12:48:40;;;;;;;;;;;24.70;43.80;;;;;;6118157;28;76204;-61
2023/04/18 12:51:42;;;;;;;;;;;24.70;43.90;;;;;;6119134;28;77733;-62
2023/04/18 12:54:42;;;;;;;;;;;24.70;43.80;;;;;;6120743;28;75616;-61
2023/04/18 12:57:43;;;;;;;;;;;24.70;43.80;;;;;;6134542;28;76291;-62
2023/04/18 13:00:43;;;;;;;;;;;24.70;43.80;;;;;;6155128;28;75440;-61
2023/04/18 13:03:44;;;;;;;;;;;24.70;43.70;;;;;;6147635;28;78369;-64
2023/04/18 13:06:45;;;;;;;;;;;24.70;44.00;;;;;;6150097;28;75846;-61
2023/04/18 13:09:45;;;;;;;;;;;24.70;43.80;;;;;;6153860;28;76979;-62
2023/04/18 13:12:46;;;;;;;;;;;24.70;43.80;;;;;;6154223;28;75481;-62
2023/04/18 13:15:46;;;;;;;;;;;24.70;43.80;;;;;;6117732;28;80147;-64
2023/04/18 13:18:47;;;;;;;;;;;24.60;43.50;;;;;;6152835;28;75318;-61
2023/04/18 13:21:47;;;;;;;;;;;24.70;43.80;;;;;;6153073;28;75335;-61
2023/04/18 13:24:48;;;;;;;;;;;24.70;43.90;;;;;;6154187;28;75131;-60
2023/04/18 13:27:52;;;;;;;;;;;24.70;43.80;;;;;;6170279;28;75349;-60
2023/04/18 13:30:52;;;;;;;;;;;24.60;43.60;;;;;;6146597;28;79326;-59
2023/04/18 13:33:53;;;;;;;;;;;24.60;43.40;;;;;;6153771;28;74750;-63
2023/04/18 13:36:53;;;;;;;;;;;24.70;43.30;;;;;;6157545;28;75468;-64
2023/04/18 13:39:54;;;;;;;;;;;24.60;43.20;;;;;;6157513;28;76716;-63
2023/04/18 13:42:54;;;;;;;;;;;24.60;43.10;;;;;;6154010;28;75264;-61
2023/04/18 13:45:55;;;;;;;;;;;24.60;43.30;;;;;;6155433;28;75395;-61
2023/04/18 13:48:55;;;;;;;;;;;24.60;43.00;;;;;;6153245;28;75239;-60
2023/04/18 13:51:56;;;;;;;;;;;24.60;43.20;;;;;;6159306;28;75583;-62
2023/04/18 13:54:57;;;;;;;;;;;24.60;42.90;;;;;;6158556;28;75429;-62
2023/04/18 13:57:57;;;;;;;;;;;24.50;42.10;;;;;;6158133;28;74956;-62
2023/04/18 14:00:58;;;;;;;;;;;24.40;42.00;;;;;;6159339;28;75913;-62
2023/04/18 14:03:58;;;;;;;;;;;24.40;41.60;;;;;;6159658;28;75298;-61
2023/04/18 14:06:59;;;;;;;;;;;24.40;41.40;;;;;;6158769;28;75313;-60
2023/04/18 14:09:59;;;;;;;;;;;24.40;41.60;;;;;;6154184;28;76286;-61
2023/04/18 14:13:00;;;;;;;;;;;24.30;41.50;;;;;;6158034;28;75458;-61
2023/04/18 14:16:01;;;;;;;;;;;24.30;41.60;;;;;;6160183;28;75473;-64
2023/04/18 14:19:01;;;;;;;;;;;24.30;41.70;;;;;;6157614;28;75033;-65
2023/04/18 14:22:02;;;;;;;;;;;24.30;42.20;;;;;;6161199;28;75297;-63
2023/04/18 14:25:02;;;;;;;;;;;24.30;42.50;;;;;;6176488;28;78733;-66
2023/04/18 14:28:03;;;;;;;;;;;24.30;42.60;;;;;;6161046;28;76018;-65
2023/04/18 14:31:05;;;;;;;;;;;24.30;42.80;;;;;;6159584;28;76075;-64
2023/04/18 14:34:07;;;;;;;;;;;24.40;43.00;;;;;;6158440;28;75369;-69
2023/04/18 14:37:07;;;;;;;;;;;24.40;43.00;;;;;;6157258;28;75887;-65
2023/04/18 14:40:08;;;;;;;;;;;24.40;42.40;;;;;;6160287;28;76582;-64
2023/04/18 14:43:09;;;;;;;;;;;24.40;42.80;;;;;;6159414;28;76000;-63
2023/04/18 14:46:10;;;;;;;;;;;24.40;42.80;;;;;;6156362;28;75252;-61
2023/04/18 14:49:10;;;;;;;;;;;24.40;42.70;;;;;;6157883;28;77370;-63
2023/04/18 14:52:11;;;;;;;;;;;24.40;42.70;;;;;;6168531;28;76988;-61
2023/04/18 14:55:11;;;;;;;;;;;24.40;42.60;;;;;;6135745;28;78111;-63
2023/04/18 14:58:12;;;;;;;;;;;24.40;42.50;;;;;;6151124;28;74986;-63
2023/04/18 15:01:12;;;;;;;;;;;24.40;42.50;;;;;;6148782;28;76882;-61
2023/04/18 15:04:13;;;;;;;;;;;24.40;42.50;;;;;;6164150;28;75055;-62
2023/04/18 15:07:14;;;;;;;;;;;24.40;42.40;;;;;;6152475;28;75606;-63
2023/04/18 15:10:15;;;;;;;;;;;24.40;42.30;;;;;;6135309;28;75349;-63
2023/04/18 15:13:15;;;;;;;;;;;24.50;42.30;;;;;;6154290;28;75363;-62
2023/04/18 15:16:16;;;;;;;;;;;24.50;42.30;;;;;;6145650;28;75431;-64
2023/04/18 15:19:16;;;;;;;;;;;24.50;42.30;;;;;;6154743;28;75628;-64
2023/04/18 15:22:17;;;;;;;;;;;24.50;42.30;;;;;;6155680;28;77968;-63
2023/04/18 15:25:17;;;;;;;;;;;24.50;42.20;;;;;;6154524;28;75257;-63
2023/04/18 15:28:18;;;;;;;;;;;24.50;42.20;;;;;;6156804;28;80031;-65
2023/04/18 15:31:18;;;;;;;;;;;24.50;42.20;;;;;;6153394;28;76968;-64
2023/04/18 15:34:19;;;;;;;;;;;24.50;42.20;;;;;;6155998;28;75808;-65
2023/04/18 15:37:20;;;;;;;;;;;24.50;42.10;;;;;;6159703;28;76415;-65
2023/04/18 15:40:20;;;;;;;;;;;24.50;42.20;;;;;;6155659;28;78233;-64
2023/04/18 15:43:21;;;;;;;;;;;24.50;42.10;;;;;;6156436;28;76790;-61
2023/04/18 15:46:22;;;;;;;;;;;24.50;42.10;;;;;;6155875;28;75884;-65
2023/04/18 15:49:22;;;;;;;;;;;24.50;42.10;;;;;;6170732;28;78476;-67
2023/04/18 15:52:23;;;;;;;;;;;24.50;42.20;;;;;;6151562;28;75342;-64
2023/04/18 15:55:23;;;;;;;;;;;24.50;42.20;;;;;;6154284;28;76174;-67
2023/04/18 15:58:26;;;;;;;;;;;24.50;42.30;;;;;;6156363;28;75042;-68
2023/04/18 16:01:27;;;;;;;;;;;24.50;42.30;;;;;;6153513;28;77606;-61
2023/04/18 16:04:27;;;;;;;;;;;24.50;42.20;;;;;;6152612;28;78533;-67
2023/04/18 16:07:28;;;;;;;;;;;24.50;42.40;;;;;;6152125;28;77610;-64
2023/04/18 16:10:28;;;;;;;;;;;24.40;42.30;;;;;;6154136;28;76469;-68
2023/04/18 16:13:29;;;;;;;;;;;24.40;42.30;;;;;;6175089;28;75369;-70
2023/04/18 16:16:30;;;;;;;;;;;24.40;42.40;;;;;;6157880;28;75104;-66
2023/04/18 16:19:30;;;;;;;;;;;24.40;42.40;;;;;;6157691;28;75118;-67
2023/04/18 16:22:31;;;;;;;;;;;24.40;42.30;;;;;;6156120;28;75550;-69
2023/04/18 16:25:32;;;;;;;;;;;24.40;42.40;;;;;;6156819;28;75603;-66
2023/04/18 16:28:36;;;;;;;;;;;24.40;42.40;;;;;;6151673;28;76688;-67
2023/04/18 16:31:37;;;;;;;;;;;24.40;42.50;;;;;;6160082;28;75236;-71
2023/04/18 16:34:37;;;;;;;;;;;24.30;42.40;;;;;;6159094;28;77212;-67
2023/04/18 16:37:38;;;;;;;;;;;24.30;42.50;;;;;;6138406;28;76987;-59
2023/04/18 16:40:38;;;;;;;;;;;24.30;42.50;;;;;;6153338;28;76405;-58
2023/04/18 16:43:39;;;;;;;;;;;24.20;42.50;;;;;;6158701;28;75504;-61
2023/04/18 16:46:40;;;;;;;;;;;24.20;42.50;;;;;;6161409;28;75064;-63
2023/04/18 16:49:42;;;;;;;;;;;24.20;42.70;;;;;;6145525;28;79912;-61
2023/04/18 16:52:42;;;;;;;;;;;24.20;42.40;;;;;;6132217;28;80571;-61
2023/04/18 16:55:43;;;;;;;;;;;24.20;42.40;;;;;;6149268;28;75570;-62
2023/04/18 16:58:43;;;;;;;;;;;24.20;42.30;;;;;;6135791;28;75386;-67
2023/04/18 17:01:44;;;;;;;;;;;24.20;42.40;;;;;;6154509;28;78082;-70
2023/04/18 17:04:44;;;;;;;;;;;24.10;42.40;;;;;;6154136;28;75087;-66
2023/04/18 17:07:48;;;;;;;;;;;24.10;42.50;;;;;;6148223;28;76692;-70
2023/04/18 17:10:48;;;;;;;;;;;24.10;42.70;;;;;;6153149;28;80211;-74